Terminal Aerodrome Forecast
Issued by NWS

Home | Current Version | Previous Version | Text Only | Print | Product List | Glossary On
Versions: 1 2 3 4 5 6 7 8 9 10 11 12 13 14 15 16 17
000
FTUS45 KGJT 041735 AAA
TAFTEX
TAF AMD
KTEX 041735Z 0418/0518 VRB03KT P6SM SKC
     FM042200 23006KT P6SM FEW090
     FM050200 15006KT P6SM SCT100
     FM051000 18009KT P6SM BKN100 WS020/26030KT
     FM051200 20012G26KT P6SM BKN100
     FM051600 23011G24KT P6SM BKN070=

USA.gov is the U.S. government's official web portal to all federal, state and local government web resources and services.